createdAt,value
2023-03-11T00:00:46.957Z,3.66
2023-03-11T00:03:23.148Z,3.63
2023-03-11T00:05:53.835Z,3.73
2023-03-11T00:08:25.639Z,3.73
2023-03-11T00:10:56.464Z,3.74
2023-03-11T00:13:23.862Z,3.73
2023-03-11T00:15:55.741Z,3.73
2023-03-11T00:18:26.782Z,3.66
2023-03-11T00:20:56.241Z,3.66
2023-03-11T00:23:24.584Z,3.62
2023-03-11T00:25:51.920Z,3.65
2023-03-11T00:28:19.145Z,3.61
2023-03-11T00:30:47.274Z,3.61
2023-03-11T00:33:16.033Z,3.61
2023-03-11T00:35:43.986Z,3.61
2023-03-11T00:38:20.501Z,3.66
2023-03-11T00:40:49.206Z,3.65
2023-03-11T00:43:17.781Z,3.61
2023-03-11T00:45:44.952Z,3.65
2023-03-11T00:48:13.763Z,3.66
2023-03-11T00:50:41.048Z,3.57
2023-03-11T00:53:08.886Z,3.52
2023-03-11T00:55:36.272Z,3.54
2023-03-11T00:58:06.165Z,3.55
2023-03-11T01:00:34.975Z,3.58
2023-03-11T01:03:02.197Z,3.60
2023-03-11T01:05:33.347Z,3.50
2023-03-11T01:08:01.275Z,3.49
2023-03-11T01:10:30.574Z,3.45
2023-03-11T01:12:57.333Z,3.45
2023-03-11T01:15:33.899Z,3.42
2023-03-11T01:18:02.073Z,3.43
2023-03-11T01:20:29.148Z,3.43
2023-03-11T01:22:56.377Z,3.46
2023-03-11T01:25:25.257Z,3.49
2023-03-11T01:27:52.137Z,3.51
2023-03-11T01:30:25.521Z,3.50
2023-03-11T01:32:55.231Z,3.50
2023-03-11T01:35:24.586Z,3.55
2023-03-11T01:37:52.514Z,3.49
2023-03-11T01:40:24.701Z,3.43
2023-03-11T01:42:51.780Z,3.35
2023-03-11T01:45:36.305Z,3.31
2023-03-11T01:48:03.392Z,3.21
2023-03-11T01:50:41.141Z,3.21
2023-03-11T01:53:09.761Z,3.14
2023-03-11T01:55:37.380Z,3.08
2023-03-11T01:58:10.920Z,3.05
2023-03-11T02:00:38.760Z,3.05
2023-03-11T02:03:21.750Z,3.10
2023-03-11T02:05:50.132Z,3.11
2023-03-11T02:08:17.229Z,3.04
2023-03-11T02:10:45.720Z,2.97
2023-03-11T02:13:12.972Z,3.01
2023-03-11T02:15:40.630Z,3.01
2023-03-11T02:18:09.277Z,3.00
2023-03-11T02:20:58.004Z,3.01
2023-03-11T02:23:37.086Z,2.97
2023-03-11T02:26:33.606Z,2.88
2023-03-11T02:29:04.908Z,2.84
2023-03-11T02:31:33.826Z,2.92
2023-03-11T02:34:05.645Z,2.85
2023-03-11T02:36:41.637Z,2.79
2023-03-11T02:39:09.782Z,2.72
2023-03-11T02:41:45.814Z,2.61
2023-03-11T02:44:15.780Z,2.66
2023-03-11T02:46:43.357Z,2.60
2023-03-11T02:49:11.295Z,2.54
2023-03-11T02:51:38.478Z,2.59
2023-03-11T02:54:06.414Z,2.65
2023-03-11T02:56:33.320Z,2.71
2023-03-11T02:59:00.170Z,2.74
2023-03-11T03:01:27.140Z,2.69
2023-03-11T03:03:54.342Z,2.65
2023-03-11T03:06:21.907Z,2.56
2023-03-11T03:08:48.717Z,2.60
2023-03-11T03:11:15.681Z,2.63
2023-03-11T03:13:42.738Z,2.62
2023-03-11T03:16:09.669Z,2.55
2023-03-11T03:18:39.279Z,2.49
2023-03-11T03:21:06.231Z,2.47
2023-03-11T03:23:35.176Z,2.39
2023-03-11T03:26:02.470Z,2.41
2023-03-11T03:28:32.416Z,2.45
2023-03-11T03:31:10.619Z,2.35
2023-03-11T03:33:37.888Z,2.39
2023-03-11T03:36:14.063Z,2.41
2023-03-11T03:38:41.420Z,2.40
2023-03-11T03:41:09.517Z,2.41
2023-03-11T03:43:36.513Z,2.33
2023-03-11T03:46:05.825Z,2.31
2023-03-11T03:48:33.494Z,2.29
2023-03-11T03:51:11.174Z,2.18
2023-03-11T03:53:38.487Z,2.27
2023-03-11T03:56:11.658Z,2.25
2023-03-11T03:58:39.060Z,2.31
2023-03-11T04:01:06.959Z,2.21
2023-03-11T04:03:39.526Z,2.16
2023-03-11T04:06:21.480Z,2.11
2023-03-11T04:08:49.057Z,2.05
2023-03-11T04:11:15.862Z,1.99
2023-03-11T04:13:44.572Z,2.06
2023-03-11T04:16:19.986Z,2.14
2023-03-11T04:18:48.202Z,2.10
2023-03-11T04:21:15.066Z,2.09
2023-03-11T04:23:42.202Z,2.07
2023-03-11T04:26:09.071Z,2.08
2023-03-11T04:28:35.936Z,2.09
2023-03-11T04:31:02.994Z,2.03
2023-03-11T04:33:29.991Z,2.06
2023-03-11T04:35:57.428Z,2.01
2023-03-11T04:38:24.882Z,2.02
2023-03-11T04:40:51.995Z,2.08
2023-03-11T04:43:19.099Z,1.99
2023-03-11T04:45:50.130Z,1.90
2023-03-11T04:48:16.939Z,1.81
2023-03-11T04:50:43.693Z,1.76
2023-03-11T04:53:10.477Z,1.79
2023-03-11T04:55:37.900Z,1.79
2023-03-11T04:58:05.488Z,1.83
2023-03-11T05:00:32.340Z,1.83
2023-03-11T05:02:59.407Z,1.83
2023-03-11T05:05:26.244Z,1.81
2023-03-11T05:07:53.073Z,1.86
2023-03-11T05:10:22.495Z,1.90
2023-03-11T05:12:52.762Z,1.85
2023-03-11T05:15:19.941Z,1.87
2023-03-11T05:17:52.713Z,1.81
2023-03-11T05:20:19.585Z,1.80
2023-03-11T05:22:46.321Z,1.78
2023-03-11T05:25:13.156Z,1.73
2023-03-11T05:27:40.328Z,1.74
2023-03-11T05:30:08.652Z,1.77
2023-03-11T05:32:35.444Z,1.81
2023-03-11T05:35:02.307Z,1.79
2023-03-11T05:37:32.136Z,1.74
2023-03-11T05:39:59.098Z,1.72
2023-03-11T05:42:25.875Z,1.75
2023-03-11T05:44:52.716Z,1.74
2023-03-11T05:47:19.522Z,1.76
2023-03-11T05:49:48.774Z,1.71
2023-03-11T05:52:16.523Z,1.72
2023-03-11T05:54:43.413Z,1.71
2023-03-11T05:57:10.340Z,1.70
2023-03-11T05:59:37.821Z,1.76
2023-03-11T06:02:04.912Z,1.80
2023-03-11T06:04:35.035Z,1.78
2023-03-11T06:07:02.231Z,1.77
2023-03-11T06:09:29.336Z,1.71
2023-03-11T06:11:56.273Z,1.62
2023-03-11T06:14:23.104Z,1.66
2023-03-11T06:16:49.873Z,1.68
2023-03-11T06:19:16.691Z,1.63
2023-03-11T06:21:43.508Z,1.62
2023-03-11T06:24:10.281Z,1.62
2023-03-11T06:26:37.079Z,1.57
2023-03-11T06:29:12.370Z,1.59
2023-03-11T06:31:40.093Z,1.59
2023-03-11T06:34:07.053Z,1.64
2023-03-11T06:36:33.929Z,1.67
2023-03-11T06:39:00.847Z,1.76
2023-03-11T06:41:27.667Z,1.73
2023-03-11T06:43:54.568Z,1.80
2023-03-11T06:46:23.111Z,1.84
2023-03-11T06:48:52.179Z,1.86
2023-03-11T06:51:23.308Z,1.94
2023-03-11T06:53:52.845Z,1.93
2023-03-11T06:56:22.317Z,1.95
2023-03-11T06:58:49.928Z,1.98
2023-03-11T07:01:20.853Z,1.99
2023-03-11T07:03:49.576Z,2.09
2023-03-11T07:06:21.215Z,2.18
2023-03-11T07:08:50.448Z,2.22
2023-03-11T07:11:22.544Z,2.23
2023-03-11T07:13:50.400Z,2.19
2023-03-11T07:16:21.649Z,2.28
2023-03-11T07:18:52.588Z,2.38
2023-03-11T07:21:23.003Z,2.40
2023-03-11T07:23:55.497Z,2.41
2023-03-11T07:26:26.977Z,2.28
2023-03-11T07:28:55.986Z,2.31
2023-03-11T07:31:30.264Z,2.40
2023-03-11T07:34:04.779Z,2.45
2023-03-11T07:36:32.610Z,2.48
2023-03-11T07:39:04.644Z,2.57
2023-03-11T07:41:34.831Z,2.67
2023-03-11T07:44:04.669Z,2.72
2023-03-11T07:46:32.300Z,2.82
2023-03-11T07:49:00.425Z,2.92
2023-03-11T07:51:30.983Z,2.94
2023-03-11T07:54:00.447Z,2.84
2023-03-11T07:56:31.944Z,2.85
2023-03-11T07:59:00.916Z,2.95
2023-03-11T08:01:35.954Z,2.94
2023-03-11T08:04:06.383Z,3.02
2023-03-11T08:06:35.284Z,3.04
2023-03-11T08:09:07.076Z,2.99
2023-03-11T08:11:33.920Z,3.11
2023-03-11T08:14:01.115Z,3.26
2023-03-11T08:16:28.522Z,3.51
2023-03-11T08:18:55.819Z,3.50
2023-03-11T08:21:26.588Z,3.69
2023-03-11T08:23:58.989Z,3.87
2023-03-11T08:26:26.406Z,4.06
2023-03-11T08:28:54.797Z,4.06
2023-03-11T08:31:33.663Z,4.45
2023-03-11T08:34:08.579Z,4.71
2023-03-11T08:36:35.815Z,4.65
2023-03-11T08:39:03.445Z,4.51
2023-03-11T08:41:30.511Z,4.44
2023-03-11T08:43:57.498Z,4.55
2023-03-11T08:46:32.740Z,5.08
2023-03-11T08:49:06.211Z,5.39
2023-03-11T08:51:35.081Z,5.17
2023-03-11T08:54:02.948Z,5.00
2023-03-11T08:56:30.294Z,5.25
2023-03-11T08:58:57.270Z,5.35
2023-03-11T09:01:24.204Z,5.64
2023-03-11T09:03:51.750Z,6.16
2023-03-11T09:06:19.398Z,6.31
2023-03-11T09:08:48.387Z,6.28
2023-03-11T09:11:18.715Z,6.41
2023-03-11T09:13:45.573Z,6.21
2023-03-11T09:16:19.863Z,6.08
2023-03-11T09:18:49.005Z,6.11
2023-03-11T09:21:16.126Z,6.11
2023-03-11T09:23:44.532Z,6.27
2023-03-11T09:26:12.613Z,6.63
2023-03-11T09:28:41.147Z,6.92
2023-03-11T09:31:09.595Z,7.20
2023-03-11T09:33:42.002Z,7.58
2023-03-11T09:36:17.963Z,7.78
2023-03-11T09:38:45.778Z,7.71
2023-03-11T09:41:33.522Z,7.35
2023-03-11T09:44:18.602Z,7.66
2023-03-11T09:47:26.418Z,8.08
2023-03-11T09:50:18.222Z,7.76
2023-03-11T09:53:14.226Z,7.40
2023-03-11T09:55:53.451Z,7.16
2023-03-11T09:58:35.757Z,6.91
2023-03-11T10:01:26.339Z,6.73
2023-03-11T10:03:57.530Z,7.13
2023-03-11T10:06:29.102Z,7.49
2023-03-11T10:09:33.656Z,7.75
2023-03-11T10:12:16.908Z,8.04
2023-03-11T10:15:39.330Z,8.17
2023-03-11T10:18:53.605Z,7.70
2023-03-11T10:21:29.944Z,7.23
2023-03-11T10:24:30.831Z,7.03
2023-03-11T10:27:13.090Z,7.67
2023-03-11T10:30:20.815Z,8.13
2023-03-11T10:33:26.692Z,8.27
2023-03-11T10:35:58.973Z,8.41
2023-03-11T10:38:35.292Z,8.80
2023-03-11T10:41:44.377Z,9.28
2023-03-11T10:44:34.281Z,9.70
2023-03-11T10:47:02.209Z,10.05
2023-03-11T10:49:29.846Z,10.30
2023-03-11T10:51:57.600Z,10.45
2023-03-11T10:54:35.857Z,10.77
2023-03-11T10:57:19.369Z,10.78
2023-03-11T10:59:52.381Z,10.80
2023-03-11T11:02:58.113Z,10.65
2023-03-11T11:05:35.688Z,10.60
2023-03-11T11:08:16.984Z,10.63
2023-03-11T11:10:55.391Z,10.53
2023-03-11T11:13:34.171Z,10.65
2023-03-11T11:16:21.062Z,10.95
2023-03-11T11:19:08.180Z,11.19
2023-03-11T11:21:41.460Z,11.61
2023-03-11T11:24:26.040Z,11.89
2023-03-11T11:27:11.761Z,11.83
2023-03-11T11:29:38.953Z,12.42
2023-03-11T11:32:25.458Z,12.35
2023-03-11T11:35:17.017Z,11.80
2023-03-11T11:37:54.760Z,12.24
2023-03-11T11:40:31.643Z,12.90
2023-03-11T11:43:18.557Z,13.18
2023-03-11T11:46:00.463Z,13.43
2023-03-11T11:48:47.255Z,14.04
2023-03-11T11:51:26.289Z,14.42
2023-03-11T11:54:17.445Z,12.95
2023-03-11T11:56:45.947Z,12.93
2023-03-11T11:59:20.026Z,14.04
2023-03-11T12:02:05.049Z,14.44
2023-03-11T12:05:08.502Z,14.07
2023-03-11T12:08:03.590Z,14.36
2023-03-11T12:10:52.234Z,14.98
2023-03-11T12:13:22.305Z,15.29
2023-03-11T12:15:58.098Z,15.36
2023-03-11T12:18:39.456Z,15.38
2023-03-11T12:21:44.911Z,14.69
2023-03-11T12:24:38.443Z,14.14
2023-03-11T12:27:26.361Z,14.47
2023-03-11T12:29:57.790Z,15.15
2023-03-11T12:32:41.645Z,15.71
2023-03-11T12:35:51.050Z,16.05
2023-03-11T12:38:38.769Z,15.64
2023-03-11T12:41:33.762Z,15.88
2023-03-11T12:44:23.937Z,16.07
2023-03-11T12:47:00.010Z,16.38
2023-03-11T12:49:34.655Z,15.76
2023-03-11T12:52:17.266Z,16.21
2023-03-11T12:54:49.113Z,16.06
2023-03-11T12:57:19.081Z,15.94
2023-03-11T13:00:23.041Z,15.95
2023-03-11T13:03:37.416Z,15.99
2023-03-11T13:06:55.640Z,14.67
2023-03-11T13:09:24.228Z,15.46
2023-03-11T13:11:53.904Z,15.79
2023-03-11T13:14:34.049Z,15.09
2023-03-11T13:17:26.850Z,14.84
2023-03-11T13:20:00.014Z,13.49
2023-03-11T13:22:56.166Z,14.61
2023-03-11T13:26:04.517Z,15.70
2023-03-11T13:28:46.263Z,15.86
2023-03-11T13:31:52.076Z,16.27
2023-03-11T13:35:13.034Z,16.11
2023-03-11T13:38:17.398Z,16.46
2023-03-11T13:40:46.822Z,16.22
2023-03-11T13:43:23.509Z,15.65
2023-03-11T13:46:00.680Z,16.08
2023-03-11T13:48:37.627Z,15.56
2023-03-11T13:51:07.625Z,15.76
2023-03-11T13:53:48.070Z,15.57
2023-03-11T13:56:35.823Z,15.71
2023-03-11T13:59:24.456Z,15.12
2023-03-11T14:01:54.912Z,14.29
2023-03-11T14:04:32.536Z,14.06
2023-03-11T14:07:02.949Z,14.43
2023-03-11T14:09:29.805Z,14.48
2023-03-11T14:12:07.769Z,14.65
2023-03-11T14:15:00.948Z,14.49
2023-03-11T14:17:27.750Z,13.47
2023-03-11T14:20:07.877Z,12.76
2023-03-11T14:22:35.164Z,12.91
2023-03-11T14:25:08.741Z,12.41
2023-03-11T14:27:39.257Z,12.01
2023-03-11T14:30:09.275Z,12.04
2023-03-11T14:32:38.546Z,12.06
2023-03-11T14:35:22.216Z,11.70
2023-03-11T14:37:48.998Z,11.63
2023-03-11T14:40:37.707Z,11.50
2023-03-11T14:43:08.071Z,11.24
2023-03-11T14:45:41.114Z,11.01
2023-03-11T14:48:41.846Z,10.83
2023-03-11T14:51:26.456Z,10.72
2023-03-11T14:54:17.526Z,10.58
2023-03-11T14:56:55.050Z,10.51
2023-03-11T14:59:34.984Z,10.36
2023-03-11T15:02:34.719Z,10.39
2023-03-11T15:05:20.956Z,10.25
2023-03-11T15:07:51.698Z,10.02
2023-03-11T15:10:18.645Z,10.12
2023-03-11T15:12:49.676Z,9.99
2023-03-11T15:15:29.069Z,9.77
2023-03-11T15:18:01.810Z,9.78
2023-03-11T15:20:37.784Z,9.71
2023-03-11T15:23:07.604Z,9.51
2023-03-11T15:25:38.452Z,9.41
2023-03-11T15:28:36.399Z,9.32
2023-03-11T15:31:22.535Z,9.28
2023-03-11T15:33:54.276Z,9.14
2023-03-11T15:36:40.104Z,8.96
2023-03-11T15:39:29.218Z,8.96
2023-03-11T15:42:03.451Z,8.87
2023-03-11T15:44:36.835Z,8.90
2023-03-11T15:47:04.535Z,8.91
2023-03-11T15:49:31.853Z,8.84
2023-03-11T15:52:00.423Z,8.74
2023-03-11T15:54:28.573Z,8.61
2023-03-11T15:56:58.388Z,8.56
2023-03-11T15:59:29.667Z,8.47
2023-03-11T16:01:56.912Z,8.46
2023-03-11T16:04:24.096Z,8.32
2023-03-11T16:07:07.149Z,8.18
2023-03-11T16:09:37.940Z,8.18
2023-03-11T16:12:23.361Z,8.32
2023-03-11T16:14:51.050Z,8.29
2023-03-11T16:17:18.998Z,8.26
2023-03-11T16:19:49.736Z,8.18
2023-03-11T16:22:32.779Z,8.29
2023-03-11T16:25:02.114Z,8.32
2023-03-11T16:27:32.304Z,8.16
2023-03-11T16:29:59.086Z,8.16
2023-03-11T16:32:29.255Z,8.12
2023-03-11T16:34:56.160Z,8.04
2023-03-11T16:37:22.891Z,8.03
2023-03-11T16:39:49.693Z,8.00
2023-03-11T16:42:23.721Z,7.91
2023-03-11T16:44:53.402Z,7.91
2023-03-11T16:47:20.176Z,7.83
2023-03-11T16:49:50.584Z,7.84
2023-03-11T16:52:20.806Z,7.71
2023-03-11T16:54:48.101Z,7.65
2023-03-11T16:57:15.173Z,7.55
2023-03-11T16:59:45.431Z,7.53
2023-03-11T17:02:12.574Z,7.50
2023-03-11T17:04:39.492Z,7.50
2023-03-11T17:07:08.240Z,7.49
2023-03-11T17:09:36.872Z,7.46
2023-03-11T17:12:04.760Z,7.35
2023-03-11T17:14:32.494Z,7.24
2023-03-11T17:17:00.035Z,7.17
2023-03-11T17:19:26.872Z,7.12
2023-03-11T17:21:53.622Z,7.11
2023-03-11T17:24:20.611Z,7.00
2023-03-11T17:26:47.513Z,7.06
2023-03-11T17:29:15.132Z,7.09
2023-03-11T17:31:42.163Z,7.08
2023-03-11T17:34:09.234Z,7.01
2023-03-11T17:36:36.236Z,7.02
2023-03-11T17:39:03.356Z,6.95
2023-03-11T17:41:30.207Z,6.80
2023-03-11T17:43:57.044Z,6.72
2023-03-11T17:46:28.011Z,6.69
2023-03-11T17:48:54.856Z,6.64
2023-03-11T17:51:25.826Z,6.61
2023-03-11T17:53:55.672Z,6.57
2023-03-11T17:56:23.737Z,6.55
2023-03-11T17:58:51.135Z,6.48
2023-03-11T18:01:25.461Z,6.27
2023-03-11T18:03:53.279Z,6.12
2023-03-11T18:06:22.145Z,5.99
2023-03-11T18:08:49.949Z,5.88
2023-03-11T18:11:21.964Z,5.85
2023-03-11T18:13:50.242Z,5.82
2023-03-11T18:16:24.879Z,5.84
2023-03-11T18:18:52.677Z,5.93
2023-03-11T18:21:29.562Z,5.88
2023-03-11T18:24:00.276Z,5.81
2023-03-11T18:26:29.983Z,5.73
2023-03-11T18:28:59.026Z,5.46
2023-03-11T18:31:28.843Z,5.37
2023-03-11T18:34:04.921Z,5.32
2023-03-11T18:36:38.540Z,5.12
2023-03-11T18:39:06.653Z,5.01
2023-03-11T18:41:35.666Z,5.00
2023-03-11T18:44:05.948Z,4.95
2023-03-11T18:46:33.394Z,4.96
2023-03-11T18:49:02.716Z,4.91
2023-03-11T18:51:32.489Z,4.88
2023-03-11T18:54:00.265Z,4.88
2023-03-11T18:56:27.580Z,4.57
2023-03-11T18:58:56.012Z,4.11
2023-03-11T19:01:23.231Z,4.14
2023-03-11T19:04:00.543Z,4.16
2023-03-11T19:06:29.998Z,3.93
2023-03-11T19:09:00.674Z,3.83
2023-03-11T19:11:27.564Z,3.79
2023-03-11T19:13:54.963Z,3.56
2023-03-11T19:16:28.012Z,3.47
2023-03-11T19:18:55.880Z,3.53
2023-03-11T19:21:24.112Z,3.30
2023-03-11T19:23:52.829Z,3.22
2023-03-11T19:26:21.042Z,3.26
2023-03-11T19:28:50.688Z,3.28
2023-03-11T19:31:17.736Z,3.21
2023-03-11T19:33:47.047Z,3.22
2023-03-11T19:36:14.891Z,3.17
2023-03-11T19:38:45.164Z,3.21
2023-03-11T19:41:18.329Z,3.13
2023-03-11T19:43:47.359Z,3.00
2023-03-11T19:46:18.029Z,2.92
2023-03-11T19:48:44.942Z,3.03
2023-03-11T19:51:14.379Z,2.86
2023-03-11T19:53:41.695Z,2.66
2023-03-11T19:56:12.659Z,2.68
2023-03-11T19:58:49.532Z,2.70
2023-03-11T20:01:21.120Z,2.48
2023-03-11T20:03:48.306Z,2.43
2023-03-11T20:06:18.293Z,2.53
2023-03-11T20:08:45.271Z,2.61
2023-03-11T20:11:16.929Z,2.63
2023-03-11T20:13:44.137Z,2.60
2023-03-11T20:16:18.536Z,2.52
2023-03-11T20:18:50.365Z,2.48
2023-03-11T20:21:18.025Z,2.41
2023-03-11T20:23:44.857Z,2.53
2023-03-11T20:26:19.114Z,2.51
2023-03-11T20:28:46.748Z,2.59
2023-03-11T20:31:25.892Z,2.39
2023-03-11T20:33:55.441Z,2.21
2023-03-11T20:36:30.472Z,2.16
2023-03-11T20:38:57.831Z,2.18
2023-03-11T20:41:28.576Z,2.26
2023-03-11T20:43:57.318Z,2.28
2023-03-11T20:46:26.020Z,2.15
2023-03-11T20:48:52.997Z,2.07
2023-03-11T20:51:21.088Z,2.11
2023-03-11T20:53:49.036Z,2.09
2023-03-11T20:56:20.713Z,2.03
2023-03-11T20:58:51.712Z,2.06
2023-03-11T21:01:27.057Z,2.10
2023-03-11T21:03:57.937Z,1.97
2023-03-11T21:06:55.299Z,1.88
2023-03-11T21:09:22.188Z,1.99
2023-03-11T21:11:49.393Z,2.00
2023-03-11T21:14:18.566Z,1.90
2023-03-11T21:16:46.276Z,1.90
2023-03-11T21:19:13.905Z,1.97
2023-03-11T21:21:41.685Z,1.86
2023-03-11T21:24:11.179Z,1.88
2023-03-11T21:26:38.762Z,1.90
2023-03-11T21:29:06.127Z,1.88
2023-03-11T21:31:33.458Z,1.83
2023-03-11T21:34:01.350Z,1.92
2023-03-11T21:36:29.737Z,1.94
2023-03-11T21:38:56.812Z,1.92
2023-03-11T21:41:26.646Z,1.81
2023-03-11T21:43:56.471Z,1.79
2023-03-11T21:46:27.861Z,1.75
2023-03-11T21:48:58.470Z,1.78
2023-03-11T21:51:29.224Z,1.81
2023-03-11T21:53:56.729Z,1.81
2023-03-11T21:56:26.448Z,1.85
2023-03-11T21:58:53.752Z,1.85
2023-03-11T22:01:20.763Z,1.70
2023-03-11T22:03:50.919Z,1.55
2023-03-11T22:06:17.982Z,1.61
2023-03-11T22:08:50.302Z,1.66
2023-03-11T22:11:19.335Z,1.65
2023-03-11T22:13:52.835Z,1.68
2023-03-11T22:16:22.081Z,1.69
2023-03-11T22:18:50.109Z,1.67
2023-03-11T22:21:18.707Z,1.52
2023-03-11T22:23:46.415Z,1.44
2023-03-11T22:26:14.888Z,1.56
2023-03-11T22:28:42.051Z,1.58
2023-03-11T22:31:12.691Z,1.57
2023-03-11T22:33:40.568Z,1.55
2023-03-11T22:36:09.096Z,1.56
2023-03-11T22:38:36.895Z,1.65
2023-03-11T22:41:07.756Z,1.52
2023-03-11T22:43:36.201Z,1.46
2023-03-11T22:46:05.175Z,1.35
2023-03-11T22:48:33.841Z,1.28
2023-03-11T22:51:00.974Z,1.36
2023-03-11T22:53:31.097Z,1.22
2023-03-11T22:55:58.014Z,1.20
2023-03-11T22:58:24.881Z,1.28
2023-03-11T23:00:51.821Z,1.32
2023-03-11T23:03:19.936Z,1.44
2023-03-11T23:05:46.856Z,1.12
2023-03-11T23:08:16.283Z,1.07
2023-03-11T23:10:49.674Z,1.16
2023-03-11T23:13:16.866Z,1.20
2023-03-11T23:15:45.818Z,1.27
2023-03-11T23:18:17.380Z,1.41
2023-03-11T23:20:44.450Z,1.35
2023-03-11T23:23:13.605Z,1.36
2023-03-11T23:25:41.585Z,1.21
2023-03-11T23:28:18.268Z,1.09
2023-03-11T23:30:48.192Z,1.12
2023-03-11T23:33:19.637Z,1.23
2023-03-11T23:35:52.463Z,1.15
2023-03-11T23:38:41.774Z,1.13
2023-03-11T23:41:15.346Z,1.27
2023-03-11T23:43:43.160Z,1.21
2023-03-11T23:46:10.715Z,0.90
2023-03-11T23:48:41.608Z,0.78
2023-03-11T23:51:09.285Z,0.93
2023-03-11T23:53:37.787Z,1.07
2023-03-11T23:56:14.670Z,1.03
2023-03-11T23:58:41.537Z,0.97
